sensor_id;sensor_type;location;lat;lon;timestamp;P1;durP1;ratioP1;P2;durP2;ratioP2
20114;SDS011;10218;42.874;25.320;2023-05-27T00:00:36;9.77;;;5.83;;
20114;SDS011;10218;42.874;25.320;2023-05-27T00:03:03;11.40;;;6.30;;
20114;SDS011;10218;42.874;25.320;2023-05-27T00:05:30;7.97;;;6.30;;
20114;SDS011;10218;42.874;25.320;2023-05-27T00:07:57;7.27;;;6.10;;
20114;SDS011;10218;42.874;25.320;2023-05-27T00:10:25;9.07;;;6.17;;
20114;SDS011;10218;42.874;25.320;2023-05-27T00:12:52;8.43;;;6.13;;
20114;SDS011;10218;42.874;25.320;2023-05-27T00:15:19;11.60;;;6.13;;
20114;SDS011;10218;42.874;25.320;2023-05-27T00:17:46;7.87;;;5.57;;
20114;SDS011;10218;42.874;25.320;2023-05-27T00:20:13;9.17;;;6.80;;
20114;SDS011;10218;42.874;25.320;2023-05-27T00:22:41;11.43;;;6.40;;
20114;SDS011;10218;42.874;25.320;2023-05-27T00:25:08;10.37;;;6.73;;
20114;SDS011;10218;42.874;25.320;2023-05-27T00:27:35;12.23;;;6.27;;
20114;SDS011;10218;42.874;25.320;2023-05-27T00:30:02;7.03;;;6.33;;
20114;SDS011;10218;42.874;25.320;2023-05-27T00:32:30;8.00;;;6.60;;
20114;SDS011;10218;42.874;25.320;2023-05-27T00:34:57;10.57;;;6.70;;
20114;SDS011;10218;42.874;25.320;2023-05-27T00:37:24;10.10;;;7.00;;
20114;SDS011;10218;42.874;25.320;2023-05-27T00:39:51;11.40;;;7.23;;
20114;SDS011;10218;42.874;25.320;2023-05-27T00:42:18;10.47;;;7.20;;
20114;SDS011;10218;42.874;25.320;2023-05-27T00:44:46;11.70;;;7.20;;
20114;SDS011;10218;42.874;25.320;2023-05-27T00:47:14;12.63;;;8.07;;
20114;SDS011;10218;42.874;25.320;2023-05-27T00:49:42;9.00;;;6.93;;
20114;SDS011;10218;42.874;25.320;2023-05-27T00:52:10;9.60;;;6.63;;
20114;SDS011;10218;42.874;25.320;2023-05-27T00:54:42;7.83;;;6.87;;
20114;SDS011;10218;42.874;25.320;2023-05-27T00:57:09;8.43;;;6.60;;
20114;SDS011;10218;42.874;25.320;2023-05-27T00:59:37;11.77;;;7.23;;
20114;SDS011;10218;42.874;25.320;2023-05-27T01:02:04;12.67;;;7.67;;
20114;SDS011;10218;42.874;25.320;2023-05-27T01:04:32;10.13;;;7.80;;
20114;SDS011;10218;42.874;25.320;2023-05-27T01:10:36;8.80;;;7.23;;
20114;SDS011;10218;42.874;25.320;2023-05-27T01:13:16;7.40;;;6.60;;
20114;SDS011;10218;42.874;25.320;2023-05-27T01:15:46;8.77;;;7.30;;
20114;SDS011;10218;42.874;25.320;2023-05-27T01:18:16;8.20;;;7.30;;
20114;SDS011;10218;42.874;25.320;2023-05-27T01:20:47;10.67;;;7.20;;
20114;SDS011;10218;42.874;25.320;2023-05-27T01:23:14;9.90;;;7.97;;
20114;SDS011;10218;42.874;25.320;2023-05-27T01:25:42;12.17;;;8.20;;
20114;SDS011;10218;42.874;25.320;2023-05-27T01:28:09;10.80;;;8.37;;
20114;SDS011;10218;42.874;25.320;2023-05-27T01:30:36;9.70;;;8.03;;
20114;SDS011;10218;42.874;25.320;2023-05-27T01:35:41;8.67;;;7.60;;
20114;SDS011;10218;42.874;25.320;2023-05-27T01:38:14;9.87;;;7.67;;
20114;SDS011;10218;42.874;25.320;2023-05-27T01:40:44;12.67;;;8.20;;
20114;SDS011;10218;42.874;25.320;2023-05-27T01:43:14;12.07;;;7.77;;
20114;SDS011;10218;42.874;25.320;2023-05-27T01:45:42;9.53;;;7.73;;
20114;SDS011;10218;42.874;25.320;2023-05-27T01:48:10;8.67;;;7.17;;
20114;SDS011;10218;42.874;25.320;2023-05-27T01:50:37;9.30;;;7.30;;
20114;SDS011;10218;42.874;25.320;2023-05-27T01:53:05;8.27;;;6.87;;
20114;SDS011;10218;42.874;25.320;2023-05-27T01:55:32;9.30;;;7.70;;
20114;SDS011;10218;42.874;25.320;2023-05-27T01:57:59;11.83;;;7.63;;
20114;SDS011;10218;42.874;25.320;2023-05-27T02:00:26;9.47;;;7.87;;
20114;SDS011;10218;42.874;25.320;2023-05-27T02:02:54;9.83;;;7.83;;
20114;SDS011;10218;42.874;25.320;2023-05-27T02:05:21;9.90;;;8.60;;
20114;SDS011;10218;42.874;25.320;2023-05-27T02:07:51;10.60;;;8.00;;
20114;SDS011;10218;42.874;25.320;2023-05-27T02:10:18;13.03;;;8.57;;
20114;SDS011;10218;42.874;25.320;2023-05-27T02:12:46;13.53;;;9.47;;
20114;SDS011;10218;42.874;25.320;2023-05-27T02:15:14;10.60;;;9.13;;
20114;SDS011;10218;42.874;25.320;2023-05-27T02:17:42;16.57;;;9.80;;
20114;SDS011;10218;42.874;25.320;2023-05-27T02:20:14;13.63;;;10.27;;
20114;SDS011;10218;42.874;25.320;2023-05-27T02:22:41;13.10;;;10.67;;
20114;SDS011;10218;42.874;25.320;2023-05-27T02:25:08;15.10;;;10.60;;
20114;SDS011;10218;42.874;25.320;2023-05-27T02:27:35;15.20;;;10.90;;
20114;SDS011;10218;42.874;25.320;2023-05-27T02:30:03;15.60;;;11.13;;
20114;SDS011;10218;42.874;25.320;2023-05-27T02:32:30;13.23;;;10.30;;
20114;SDS011;10218;42.874;25.320;2023-05-27T02:34:57;15.30;;;10.40;;
20114;SDS011;10218;42.874;25.320;2023-05-27T02:37:25;18.67;;;9.90;;
20114;SDS011;10218;42.874;25.320;2023-05-27T02:39:54;14.07;;;9.43;;
20114;SDS011;10218;42.874;25.320;2023-05-27T02:42:22;11.50;;;9.53;;
20114;SDS011;10218;42.874;25.320;2023-05-27T02:44:49;11.53;;;9.30;;
20114;SDS011;10218;42.874;25.320;2023-05-27T02:47:16;10.87;;;8.90;;
20114;SDS011;10218;42.874;25.320;2023-05-27T02:49:43;12.43;;;9.00;;
20114;SDS011;10218;42.874;25.320;2023-05-27T02:52:10;9.67;;;8.03;;
20114;SDS011;10218;42.874;25.320;2023-05-27T02:54:37;11.30;;;9.03;;
20114;SDS011;10218;42.874;25.320;2023-05-27T02:57:04;15.53;;;9.83;;
20114;SDS011;10218;42.874;25.320;2023-05-27T02:59:32;13.10;;;10.17;;
20114;SDS011;10218;42.874;25.320;2023-05-27T03:01:59;18.17;;;10.90;;
20114;SDS011;10218;42.874;25.320;2023-05-27T03:04:26;27.00;;;12.23;;
20114;SDS011;10218;42.874;25.320;2023-05-27T03:06:53;18.20;;;11.83;;
20114;SDS011;10218;42.874;25.320;2023-05-27T03:09:21;22.13;;;12.77;;
20114;SDS011;10218;42.874;25.320;2023-05-27T03:11:48;21.20;;;15.80;;
20114;SDS011;10218;42.874;25.320;2023-05-27T03:14:15;16.23;;;12.10;;
20114;SDS011;10218;42.874;25.320;2023-05-27T03:16:42;20.33;;;12.27;;
20114;SDS011;10218;42.874;25.320;2023-05-27T03:19:09;16.97;;;11.50;;
20114;SDS011;10218;42.874;25.320;2023-05-27T03:21:37;15.73;;;11.40;;
20114;SDS011;10218;42.874;25.320;2023-05-27T03:24:04;14.00;;;11.00;;
20114;SDS011;10218;42.874;25.320;2023-05-27T03:26:32;14.23;;;11.17;;
20114;SDS011;10218;42.874;25.320;2023-05-27T03:29:01;14.50;;;11.50;;
20114;SDS011;10218;42.874;25.320;2023-05-27T03:31:28;13.77;;;10.43;;
20114;SDS011;10218;42.874;25.320;2023-05-27T03:33:56;13.87;;;10.17;;
20114;SDS011;10218;42.874;25.320;2023-05-27T03:36:24;13.63;;;10.97;;
20114;SDS011;10218;42.874;25.320;2023-05-27T03:38:51;14.87;;;10.73;;
20114;SDS011;10218;42.874;25.320;2023-05-27T03:41:18;13.73;;;10.40;;
20114;SDS011;10218;42.874;25.320;2023-05-27T03:43:45;13.50;;;10.37;;
20114;SDS011;10218;42.874;25.320;2023-05-27T03:46:13;13.90;;;10.33;;
20114;SDS011;10218;42.874;25.320;2023-05-27T03:48:40;13.93;;;10.30;;
20114;SDS011;10218;42.874;25.320;2023-05-27T03:51:07;12.17;;;10.03;;
20114;SDS011;10218;42.874;25.320;2023-05-27T03:53:35;15.27;;;9.70;;
20114;SDS011;10218;42.874;25.320;2023-05-27T03:56:02;12.93;;;10.03;;
20114;SDS011;10218;42.874;25.320;2023-05-27T03:58:30;13.40;;;9.73;;
20114;SDS011;10218;42.874;25.320;2023-05-27T04:00:57;14.40;;;10.47;;
20114;SDS011;10218;42.874;25.320;2023-05-27T04:03:24;13.13;;;9.27;;
20114;SDS011;10218;42.874;25.320;2023-05-27T04:05:52;12.87;;;8.47;;
20114;SDS011;10218;42.874;25.320;2023-05-27T04:08:19;11.10;;;7.87;;
20114;SDS011;10218;42.874;25.320;2023-05-27T04:10:49;10.53;;;8.30;;
20114;SDS011;10218;42.874;25.320;2023-05-27T04:13:16;10.83;;;7.50;;
20114;SDS011;10218;42.874;25.320;2023-05-27T04:15:43;9.60;;;8.17;;
20114;SDS011;10218;42.874;25.320;2023-05-27T04:18:11;9.73;;;8.00;;
20114;SDS011;10218;42.874;25.320;2023-05-27T04:20:39;12.40;;;7.77;;
20114;SDS011;10218;42.874;25.320;2023-05-27T04:23:10;13.37;;;7.90;;
20114;SDS011;10218;42.874;25.320;2023-05-27T04:25:37;9.50;;;6.77;;
20114;SDS011;10218;42.874;25.320;2023-05-27T04:28:08;7.90;;;7.10;;
20114;SDS011;10218;42.874;25.320;2023-05-27T04:30:35;8.27;;;7.37;;
20114;SDS011;10218;42.874;25.320;2023-05-27T04:33:03;7.57;;;6.77;;
20114;SDS011;10218;42.874;25.320;2023-05-27T04:35:30;9.23;;;6.57;;
20114;SDS011;10218;42.874;25.320;2023-05-27T04:37:58;9.20;;;6.10;;
20114;SDS011;10218;42.874;25.320;2023-05-27T04:40:29;9.60;;;6.63;;
20114;SDS011;10218;42.874;25.320;2023-05-27T04:42:57;7.80;;;6.80;;
20114;SDS011;10218;42.874;25.320;2023-05-27T04:45:24;11.33;;;9.07;;
20114;SDS011;10218;42.874;25.320;2023-05-27T04:47:52;10.80;;;6.37;;
20114;SDS011;10218;42.874;25.320;2023-05-27T04:50:19;7.13;;;5.90;;
20114;SDS011;10218;42.874;25.320;2023-05-27T04:52:47;7.23;;;5.40;;
20114;SDS011;10218;42.874;25.320;2023-05-27T04:55:15;7.27;;;5.90;;
20114;SDS011;10218;42.874;25.320;2023-05-27T04:57:42;9.43;;;6.87;;
20114;SDS011;10218;42.874;25.320;2023-05-27T05:00:10;8.00;;;6.57;;
20114;SDS011;10218;42.874;25.320;2023-05-27T05:02:38;9.50;;;6.57;;
20114;SDS011;10218;42.874;25.320;2023-05-27T05:05:08;7.63;;;6.10;;
20114;SDS011;10218;42.874;25.320;2023-05-27T05:07:37;9.47;;;5.93;;
20114;SDS011;10218;42.874;25.320;2023-05-27T05:10:07;7.57;;;5.77;;
20114;SDS011;10218;42.874;25.320;2023-05-27T05:12:35;6.57;;;5.53;;
20114;SDS011;10218;42.874;25.320;2023-05-27T05:15:03;5.90;;;5.30;;
20114;SDS011;10218;42.874;25.320;2023-05-27T05:17:31;10.00;;;6.07;;
20114;SDS011;10218;42.874;25.320;2023-05-27T05:19:58;7.67;;;5.23;;
20114;SDS011;10218;42.874;25.320;2023-05-27T05:22:26;7.23;;;5.60;;
20114;SDS011;10218;42.874;25.320;2023-05-27T05:24:55;6.50;;;4.90;;
20114;SDS011;10218;42.874;25.320;2023-05-27T05:27:24;6.77;;;5.47;;
20114;SDS011;10218;42.874;25.320;2023-05-27T05:29:51;11.77;;;5.10;;
20114;SDS011;10218;42.874;25.320;2023-05-27T05:32:19;6.90;;;4.80;;
20114;SDS011;10218;42.874;25.320;2023-05-27T05:34:46;5.97;;;5.10;;
20114;SDS011;10218;42.874;25.320;2023-05-27T05:37:13;11.23;;;5.20;;
20114;SDS011;10218;42.874;25.320;2023-05-27T05:39:42;6.43;;;5.27;;
20114;SDS011;10218;42.874;25.320;2023-05-27T05:42:12;10.17;;;6.60;;
20114;SDS011;10218;42.874;25.320;2023-05-27T05:44:39;11.50;;;6.83;;
20114;SDS011;10218;42.874;25.320;2023-05-27T05:47:06;7.40;;;5.57;;
20114;SDS011;10218;42.874;25.320;2023-05-27T05:49:34;9.83;;;6.03;;
20114;SDS011;10218;42.874;25.320;2023-05-27T05:52:02;9.87;;;6.07;;
20114;SDS011;10218;42.874;25.320;2023-05-27T05:54:29;8.40;;;5.13;;
20114;SDS011;10218;42.874;25.320;2023-05-27T05:56:56;7.97;;;5.30;;
20114;SDS011;10218;42.874;25.320;2023-05-27T05:59:24;7.50;;;5.30;;
20114;SDS011;10218;42.874;25.320;2023-05-27T06:01:51;8.00;;;5.00;;
20114;SDS011;10218;42.874;25.320;2023-05-27T06:04:19;9.50;;;5.40;;
20114;SDS011;10218;42.874;25.320;2023-05-27T06:06:47;6.73;;;5.10;;
20114;SDS011;10218;42.874;25.320;2023-05-27T06:09:14;6.83;;;5.00;;
20114;SDS011;10218;42.874;25.320;2023-05-27T06:11:42;7.97;;;5.30;;
20114;SDS011;10218;42.874;25.320;2023-05-27T06:14:09;8.77;;;5.30;;
20114;SDS011;10218;42.874;25.320;2023-05-27T06:16:36;11.20;;;5.73;;
20114;SDS011;10218;42.874;25.320;2023-05-27T06:19:06;6.67;;;5.50;;
20114;SDS011;10218;42.874;25.320;2023-05-27T06:21:33;5.70;;;4.77;;
20114;SDS011;10218;42.874;25.320;2023-05-27T06:24:02;7.87;;;4.20;;
20114;SDS011;10218;42.874;25.320;2023-05-27T06:26:30;6.63;;;4.50;;
20114;SDS011;10218;42.874;25.320;2023-05-27T06:28:57;6.27;;;4.20;;
20114;SDS011;10218;42.874;25.320;2023-05-27T06:31:25;10.53;;;4.37;;
20114;SDS011;10218;42.874;25.320;2023-05-27T06:33:53;7.63;;;4.43;;
20114;SDS011;10218;42.874;25.320;2023-05-27T06:36:20;7.70;;;4.53;;
20114;SDS011;10218;42.874;25.320;2023-05-27T06:38:48;6.87;;;4.40;;
20114;SDS011;10218;42.874;25.320;2023-05-27T06:41:15;8.43;;;5.00;;
20114;SDS011;10218;42.874;25.320;2023-05-27T06:43:43;10.70;;;4.80;;
20114;SDS011;10218;42.874;25.320;2023-05-27T06:46:11;11.73;;;4.90;;
20114;SDS011;10218;42.874;25.320;2023-05-27T06:48:39;7.20;;;4.10;;
20114;SDS011;10218;42.874;25.320;2023-05-27T06:51:07;7.03;;;4.50;;
20114;SDS011;10218;42.874;25.320;2023-05-27T06:53:34;7.93;;;5.03;;
20114;SDS011;10218;42.874;25.320;2023-05-27T06:56:02;8.60;;;5.47;;
20114;SDS011;10218;42.874;25.320;2023-05-27T06:58:31;10.83;;;5.20;;
20114;SDS011;10218;42.874;25.320;2023-05-27T07:00:59;10.83;;;4.93;;
20114;SDS011;10218;42.874;25.320;2023-05-27T07:03:27;9.70;;;5.27;;
20114;SDS011;10218;42.874;25.320;2023-05-27T07:05:54;8.33;;;4.97;;
20114;SDS011;10218;42.874;25.320;2023-05-27T07:08:21;10.63;;;5.10;;
20114;SDS011;10218;42.874;25.320;2023-05-27T07:10:51;6.63;;;5.20;;
20114;SDS011;10218;42.874;25.320;2023-05-27T07:13:19;6.83;;;5.10;;
20114;SDS011;10218;42.874;25.320;2023-05-27T07:15:46;6.43;;;5.00;;
20114;SDS011;10218;42.874;25.320;2023-05-27T07:18:14;8.60;;;5.03;;
20114;SDS011;10218;42.874;25.320;2023-05-27T07:20:41;6.73;;;5.07;;
20114;SDS011;10218;42.874;25.320;2023-05-27T07:23:09;6.97;;;4.60;;
20114;SDS011;10218;42.874;25.320;2023-05-27T07:25:36;7.00;;;5.00;;
20114;SDS011;10218;42.874;25.320;2023-05-27T07:28:04;8.47;;;4.80;;
20114;SDS011;10218;42.874;25.320;2023-05-27T07:30:31;9.90;;;6.90;;
20114;SDS011;10218;42.874;25.320;2023-05-27T07:32:59;10.47;;;6.43;;
20114;SDS011;10218;42.874;25.320;2023-05-27T07:35:27;7.63;;;4.93;;
20114;SDS011;10218;42.874;25.320;2023-05-27T07:37:54;6.40;;;5.17;;
20114;SDS011;10218;42.874;25.320;2023-05-27T07:40:21;6.33;;;5.00;;
20114;SDS011;10218;42.874;25.320;2023-05-27T07:42:48;7.03;;;5.07;;
20114;SDS011;10218;42.874;25.320;2023-05-27T07:45:16;5.63;;;4.50;;
20114;SDS011;10218;42.874;25.320;2023-05-27T07:47:43;6.43;;;5.00;;
20114;SDS011;10218;42.874;25.320;2023-05-27T07:50:12;8.13;;;5.00;;
20114;SDS011;10218;42.874;25.320;2023-05-27T07:52:40;6.07;;;5.00;;
20114;SDS011;10218;42.874;25.320;2023-05-27T07:55:09;5.63;;;4.70;;
20114;SDS011;10218;42.874;25.320;2023-05-27T07:57:36;8.00;;;4.93;;
20114;SDS011;10218;42.874;25.320;2023-05-27T08:00:03;6.93;;;5.00;;
20114;SDS011;10218;42.874;25.320;2023-05-27T08:02:36;9.00;;;6.20;;
20114;SDS011;10218;42.874;25.320;2023-05-27T08:05:03;7.53;;;5.27;;
20114;SDS011;10218;42.874;25.320;2023-05-27T08:07:32;6.40;;;5.10;;
20114;SDS011;10218;42.874;25.320;2023-05-27T08:10:00;5.50;;;4.80;;
20114;SDS011;10218;42.874;25.320;2023-05-27T08:12:31;6.57;;;5.30;;
20114;SDS011;10218;42.874;25.320;2023-05-27T08:14:58;8.63;;;4.80;;
20114;SDS011;10218;42.874;25.320;2023-05-27T08:17:26;6.67;;;5.00;;
20114;SDS011;10218;42.874;25.320;2023-05-27T08:19:54;4.70;;;4.30;;
20114;SDS011;10218;42.874;25.320;2023-05-27T08:22:21;6.07;;;4.80;;
20114;SDS011;10218;42.874;25.320;2023-05-27T08:24:49;9.33;;;5.07;;
20114;SDS011;10218;42.874;25.320;2023-05-27T08:27:17;8.80;;;6.20;;
20114;SDS011;10218;42.874;25.320;2023-05-27T08:29:45;5.87;;;4.97;;
20114;SDS011;10218;42.874;25.320;2023-05-27T08:32:12;9.50;;;5.07;;
20114;SDS011;10218;42.874;25.320;2023-05-27T08:34:40;6.20;;;4.40;;
20114;SDS011;10218;42.874;25.320;2023-05-27T08:37:07;5.03;;;4.53;;
20114;SDS011;10218;42.874;25.320;2023-05-27T08:39:35;6.73;;;4.80;;
20114;SDS011;10218;42.874;25.320;2023-05-27T08:42:04;6.13;;;4.47;;
20114;SDS011;10218;42.874;25.320;2023-05-27T08:44:31;4.83;;;4.33;;
20114;SDS011;10218;42.874;25.320;2023-05-27T08:46:59;5.57;;;4.20;;
20114;SDS011;10218;42.874;25.320;2023-05-27T08:49:26;11.80;;;4.40;;
20114;SDS011;10218;42.874;25.320;2023-05-27T08:51:54;5.97;;;4.93;;
20114;SDS011;10218;42.874;25.320;2023-05-27T08:54:23;14.50;;;6.93;;
20114;SDS011;10218;42.874;25.320;2023-05-27T08:56:52;10.43;;;5.30;;
20114;SDS011;10218;42.874;25.320;2023-05-27T08:59:24;6.03;;;4.40;;
20114;SDS011;10218;42.874;25.320;2023-05-27T09:01:52;7.97;;;4.80;;
20114;SDS011;10218;42.874;25.320;2023-05-27T09:04:20;7.67;;;4.70;;
20114;SDS011;10218;42.874;25.320;2023-05-27T09:06:47;8.97;;;4.70;;
20114;SDS011;10218;42.874;25.320;2023-05-27T09:09:14;10.07;;;4.30;;
20114;SDS011;10218;42.874;25.320;2023-05-27T09:11:44;8.80;;;6.03;;
20114;SDS011;10218;42.874;25.320;2023-05-27T09:14:19;6.97;;;4.37;;
20114;SDS011;10218;42.874;25.320;2023-05-27T09:16:47;6.57;;;5.23;;
20114;SDS011;10218;42.874;25.320;2023-05-27T09:19:15;6.33;;;4.93;;
20114;SDS011;10218;42.874;25.320;2023-05-27T09:21:45;5.83;;;4.07;;
20114;SDS011;10218;42.874;25.320;2023-05-27T09:24:13;9.07;;;4.40;;
20114;SDS011;10218;42.874;25.320;2023-05-27T09:26:40;7.53;;;4.20;;
20114;SDS011;10218;42.874;25.320;2023-05-27T09:29:07;4.23;;;3.80;;
20114;SDS011;10218;42.874;25.320;2023-05-27T09:31:38;7.13;;;4.67;;
20114;SDS011;10218;42.874;25.320;2023-05-27T09:34:10;6.27;;;4.17;;
20114;SDS011;10218;42.874;25.320;2023-05-27T09:36:45;7.20;;;3.93;;
20114;SDS011;10218;42.874;25.320;2023-05-27T09:39:14;5.77;;;4.20;;
20114;SDS011;10218;42.874;25.320;2023-05-27T09:41:42;6.40;;;4.17;;
20114;SDS011;10218;42.874;25.320;2023-05-27T09:44:09;8.47;;;4.10;;
20114;SDS011;10218;42.874;25.320;2023-05-27T09:46:36;6.67;;;4.07;;
20114;SDS011;10218;42.874;25.320;2023-05-27T09:49:05;8.13;;;3.90;;
20114;SDS011;10218;42.874;25.320;2023-05-27T09:51:33;5.93;;;4.50;;
20114;SDS011;10218;42.874;25.320;2023-05-27T09:54:04;10.20;;;4.77;;
20114;SDS011;10218;42.874;25.320;2023-05-27T09:56:33;7.47;;;4.23;;
20114;SDS011;10218;42.874;25.320;2023-05-27T09:59:01;8.93;;;4.60;;
20114;SDS011;10218;42.874;25.320;2023-05-27T10:01:31;6.67;;;3.93;;
20114;SDS011;10218;42.874;25.320;2023-05-27T10:03:59;13.97;;;4.43;;
20114;SDS011;10218;42.874;25.320;2023-05-27T10:06:26;5.47;;;3.93;;
20114;SDS011;10218;42.874;25.320;2023-05-27T10:08:53;5.90;;;3.70;;
20114;SDS011;10218;42.874;25.320;2023-05-27T10:11:22;10.50;;;3.90;;
20114;SDS011;10218;42.874;25.320;2023-05-27T10:13:52;6.73;;;4.00;;
20114;SDS011;10218;42.874;25.320;2023-05-27T10:16:20;6.10;;;3.77;;
20114;SDS011;10218;42.874;25.320;2023-05-27T10:18:53;5.97;;;3.90;;
20114;SDS011;10218;42.874;25.320;2023-05-27T10:21:22;5.60;;;4.50;;
20114;SDS011;10218;42.874;25.320;2023-05-27T10:23:55;5.23;;;3.80;;
20114;SDS011;10218;42.874;25.320;2023-05-27T10:31:58;10.90;;;4.33;;
20114;SDS011;10218;42.874;25.320;2023-05-27T10:34:24;8.57;;;4.23;;
20114;SDS011;10218;42.874;25.320;2023-05-27T10:37:04;5.40;;;4.30;;
20114;SDS011;10218;42.874;25.320;2023-05-27T10:39:31;7.77;;;4.87;;
20114;SDS011;10218;42.874;25.320;2023-05-27T10:41:58;10.07;;;5.10;;
20114;SDS011;10218;42.874;25.320;2023-05-27T10:44:27;6.97;;;5.03;;
20114;SDS011;10218;42.874;25.320;2023-05-27T10:47:08;10.70;;;5.17;;
20114;SDS011;10218;42.874;25.320;2023-05-27T10:49:38;7.00;;;5.17;;
20114;SDS011;10218;42.874;25.320;2023-05-27T10:52:14;9.73;;;6.30;;
20114;SDS011;10218;42.874;25.320;2023-05-27T10:54:43;7.30;;;6.03;;
20114;SDS011;10218;42.874;25.320;2023-05-27T10:57:17;9.63;;;6.07;;
20114;SDS011;10218;42.874;25.320;2023-05-27T11:02:12;7.73;;;5.93;;
20114;SDS011;10218;42.874;25.320;2023-05-27T11:04:39;12.03;;;6.33;;
20114;SDS011;10218;42.874;25.320;2023-05-27T11:07:07;10.40;;;6.40;;
20114;SDS011;10218;42.874;25.320;2023-05-27T11:12:15;10.07;;;7.70;;
20114;SDS011;10218;42.874;25.320;2023-05-27T11:14:48;9.00;;;6.53;;
20114;SDS011;10218;42.874;25.320;2023-05-27T11:17:18;8.10;;;6.37;;
20114;SDS011;10218;42.874;25.320;2023-05-27T11:19:45;9.60;;;5.97;;
20114;SDS011;10218;42.874;25.320;2023-05-27T11:22:13;9.00;;;6.33;;
20114;SDS011;10218;42.874;25.320;2023-05-27T11:24:41;9.37;;;6.83;;
20114;SDS011;10218;42.874;25.320;2023-05-27T11:29:48;9.87;;;5.80;;
20114;SDS011;10218;42.874;25.320;2023-05-27T11:32:18;7.20;;;5.50;;
20114;SDS011;10218;42.874;25.320;2023-05-27T11:34:46;7.47;;;5.33;;
20114;SDS011;10218;42.874;25.320;2023-05-27T11:37:14;5.47;;;4.67;;
20114;SDS011;10218;42.874;25.320;2023-05-27T11:39:49;8.97;;;5.37;;
20114;SDS011;10218;42.874;25.320;2023-05-27T11:42:22;6.77;;;4.90;;
20114;SDS011;10218;42.874;25.320;2023-05-27T11:44:53;16.67;;;13.80;;
20114;SDS011;10218;42.874;25.320;2023-05-27T11:47:21;16.33;;;13.00;;
20114;SDS011;10218;42.874;25.320;2023-05-27T11:49:49;10.40;;;8.40;;
20114;SDS011;10218;42.874;25.320;2023-05-27T11:52:17;10.90;;;7.33;;
20114;SDS011;10218;42.874;25.320;2023-05-27T11:54:48;8.07;;;5.33;;
20114;SDS011;10218;42.874;25.320;2023-05-27T11:57:22;7.83;;;4.40;;
20114;SDS011;10218;42.874;25.320;2023-05-27T11:59:50;7.80;;;6.97;;
20114;SDS011;10218;42.874;25.320;2023-05-27T12:02:17;7.53;;;4.53;;
20114;SDS011;10218;42.874;25.320;2023-05-27T12:04:47;9.27;;;4.57;;
20114;SDS011;10218;42.874;25.320;2023-05-27T12:07:15;6.63;;;5.10;;
20114;SDS011;10218;42.874;25.320;2023-05-27T12:09:45;6.53;;;5.47;;
20114;SDS011;10218;42.874;25.320;2023-05-27T12:12:12;9.33;;;5.67;;
20114;SDS011;10218;42.874;25.320;2023-05-27T12:14:39;10.03;;;6.30;;
20114;SDS011;10218;42.874;25.320;2023-05-27T12:17:06;7.37;;;4.60;;
20114;SDS011;10218;42.874;25.320;2023-05-27T12:19:34;8.00;;;4.60;;
20114;SDS011;10218;42.874;25.320;2023-05-27T12:22:01;5.40;;;4.30;;
20114;SDS011;10218;42.874;25.320;2023-05-27T12:24:28;4.77;;;4.20;;
20114;SDS011;10218;42.874;25.320;2023-05-27T12:26:55;6.80;;;5.40;;
20114;SDS011;10218;42.874;25.320;2023-05-27T12:29:22;6.53;;;4.53;;
20114;SDS011;10218;42.874;25.320;2023-05-27T12:31:50;6.03;;;4.97;;
20114;SDS011;10218;42.874;25.320;2023-05-27T12:34:18;9.47;;;7.17;;
20114;SDS011;10218;42.874;25.320;2023-05-27T12:36:45;9.83;;;6.00;;
20114;SDS011;10218;42.874;25.320;2023-05-27T12:39:14;8.07;;;4.60;;
20114;SDS011;10218;42.874;25.320;2023-05-27T12:41:42;10.40;;;5.27;;
20114;SDS011;10218;42.874;25.320;2023-05-27T12:44:09;5.97;;;5.07;;
20114;SDS011;10218;42.874;25.320;2023-05-27T12:46:36;5.43;;;4.67;;
20114;SDS011;10218;42.874;25.320;2023-05-27T12:49:04;7.37;;;5.00;;
20114;SDS011;10218;42.874;25.320;2023-05-27T12:51:31;12.73;;;5.87;;
20114;SDS011;10218;42.874;25.320;2023-05-27T12:53:59;8.33;;;5.63;;
20114;SDS011;10218;42.874;25.320;2023-05-27T12:56:26;7.83;;;4.87;;
20114;SDS011;10218;42.874;25.320;2023-05-27T12:58:53;8.67;;;5.70;;
20114;SDS011;10218;42.874;25.320;2023-05-27T13:01:22;8.10;;;5.43;;
20114;SDS011;10218;42.874;25.320;2023-05-27T13:03:50;8.63;;;6.13;;
20114;SDS011;10218;42.874;25.320;2023-05-27T13:06:17;9.67;;;5.80;;
20114;SDS011;10218;42.874;25.320;2023-05-27T13:08:44;8.17;;;6.20;;
20114;SDS011;10218;42.874;25.320;2023-05-27T13:11:12;7.33;;;5.73;;
20114;SDS011;10218;42.874;25.320;2023-05-27T13:13:39;7.67;;;6.50;;
20114;SDS011;10218;42.874;25.320;2023-05-27T13:16:06;12.40;;;7.00;;
20114;SDS011;10218;42.874;25.320;2023-05-27T13:18:33;8.53;;;6.30;;
20114;SDS011;10218;42.874;25.320;2023-05-27T13:21:00;7.83;;;5.73;;
20114;SDS011;10218;42.874;25.320;2023-05-27T13:23:29;7.17;;;6.00;;
20114;SDS011;10218;42.874;25.320;2023-05-27T13:25:56;8.20;;;6.40;;
20114;SDS011;10218;42.874;25.320;2023-05-27T13:28:23;11.57;;;5.70;;
20114;SDS011;10218;42.874;25.320;2023-05-27T13:30:50;10.57;;;5.20;;
20114;SDS011;10218;42.874;25.320;2023-05-27T13:33:18;8.10;;;5.80;;
20114;SDS011;10218;42.874;25.320;2023-05-27T13:35:45;9.40;;;5.57;;
20114;SDS011;10218;42.874;25.320;2023-05-27T13:38:12;9.43;;;6.03;;
20114;SDS011;10218;42.874;25.320;2023-05-27T13:40:41;8.77;;;6.07;;
20114;SDS011;10218;42.874;25.320;2023-05-27T13:43:08;12.10;;;6.30;;
20114;SDS011;10218;42.874;25.320;2023-05-27T13:45:35;10.70;;;6.40;;
20114;SDS011;10218;42.874;25.320;2023-05-27T13:48:02;11.17;;;6.50;;
20114;SDS011;10218;42.874;25.320;2023-05-27T13:50:30;12.37;;;6.60;;
20114;SDS011;10218;42.874;25.320;2023-05-27T13:52:58;10.83;;;6.30;;
20114;SDS011;10218;42.874;25.320;2023-05-27T13:55:25;10.30;;;6.97;;
20114;SDS011;10218;42.874;25.320;2023-05-27T13:57:52;8.67;;;6.73;;
20114;SDS011;10218;42.874;25.320;2023-05-27T14:00:19;9.47;;;6.30;;
20114;SDS011;10218;42.874;25.320;2023-05-27T14:02:48;7.30;;;6.20;;
20114;SDS011;10218;42.874;25.320;2023-05-27T14:05:15;8.30;;;5.97;;
20114;SDS011;10218;42.874;25.320;2023-05-27T14:07:43;11.20;;;6.10;;
20114;SDS011;10218;42.874;25.320;2023-05-27T14:10:12;11.73;;;6.20;;
20114;SDS011;10218;42.874;25.320;2023-05-27T14:12:39;9.17;;;6.20;;
20114;SDS011;10218;42.874;25.320;2023-05-27T14:15:07;15.60;;;6.50;;
20114;SDS011;10218;42.874;25.320;2023-05-27T14:17:34;12.83;;;6.70;;
20114;SDS011;10218;42.874;25.320;2023-05-27T14:20:02;9.60;;;6.23;;
20114;SDS011;10218;42.874;25.320;2023-05-27T14:22:30;10.47;;;6.30;;
20114;SDS011;10218;42.874;25.320;2023-05-27T14:24:57;8.80;;;6.13;;
20114;SDS011;10218;42.874;25.320;2023-05-27T14:27:24;12.47;;;6.47;;
20114;SDS011;10218;42.874;25.320;2023-05-27T14:29:51;12.93;;;6.43;;
20114;SDS011;10218;42.874;25.320;2023-05-27T14:32:19;7.60;;;6.03;;
20114;SDS011;10218;42.874;25.320;2023-05-27T14:34:46;7.23;;;6.27;;
20114;SDS011;10218;42.874;25.320;2023-05-27T14:37:13;10.73;;;7.17;;
20114;SDS011;10218;42.874;25.320;2023-05-27T14:39:40;9.50;;;6.37;;
20114;SDS011;10218;42.874;25.320;2023-05-27T14:42:07;8.00;;;6.77;;
20114;SDS011;10218;42.874;25.320;2023-05-27T14:44:34;8.80;;;6.27;;
20114;SDS011;10218;42.874;25.320;2023-05-27T14:47:05;12.37;;;6.93;;
20114;SDS011;10218;42.874;25.320;2023-05-27T14:49:32;9.07;;;6.33;;
20114;SDS011;10218;42.874;25.320;2023-05-27T14:51:59;9.83;;;6.67;;